Time;durP1;ratioP1;P1;durP2;ratioP2;P2;SDS_P1;SDS_P2;PMS_P1;PMS_P2;Temp;Humidity;BMP_temperature;BMP_pressure;BME280_temperature;BME280_humidity;BME280_pressure;Samples;Min_cycle;Max_cycle;Signal;HPM_P1;HPM_P2
2023/12/06 00:00:40;;;;;;;0.75;0.73;;;;;;;;;;6186904;23;20015;-85
2023/12/06 00:03:35;;;;;;;;;;;;;;;;;;;;;
2023/12/06 00:06:22;;;;;;;1.13;1.00;;;;;;;;;;6187275;23;20004;-86
2023/12/06 00:09:07;;;;;;;1.52;0.85;;;;;;;;;;6186086;23;20076;-86
2023/12/06 00:11:52;;;;;;;1.27;1.17;;;;;;;;;;6207224;23;20008;-86
2023/12/06 00:14:38;;;;;;;1.92;1.02;;;;;;;;;;6187080;23;20042;-85
2023/12/06 00:17:23;;;;;;;0.98;0.70;;;;;;;;;;6207350;23;20076;-86
2023/12/06 00:20:09;;;;;;;1.88;1.08;;;;;;;;;;6186307;23;20464;-86
2023/12/06 00:22:54;;;;;;;1.95;1.00;;;;;;;;;;6186205;23;20004;-85
2023/12/06 00:25:40;;;;;;;1.13;0.77;;;;;;;;;;6186194;23;20000;-87
2023/12/06 00:28:25;;;;;;;0.82;0.75;;;;;;;;;;6208741;23;20031;-86
2023/12/06 00:31:11;;;;;;;1.00;0.80;;;;;;;;;;6208040;23;20086;-87
2023/12/06 00:33:56;;;;;;;0.90;0.90;;;;;;;;;;6186303;23;20425;-86
2023/12/06 00:36:41;;;;;;;1.75;0.80;;;;;;;;;;6186425;23;20008;-86
2023/12/06 00:39:27;;;;;;;1.25;0.90;;;;;;;;;;6185448;23;19996;-87
2023/12/06 00:42:12;;;;;;;0.60;0.60;;;;;;;;;;6185857;23;20003;-87
2023/12/06 00:45:00;;;;;;;0.70;0.70;;;;;;;;;;6177979;23;20008;-87
2023/12/06 00:47:45;;;;;;;2.55;0.85;;;;;;;;;;6186491;23;20001;-86
2023/12/06 00:50:30;;;;;;;1.75;0.50;;;;;;;;;;6165041;23;20035;-86
2023/12/06 00:53:16;;;;;;;0.82;0.60;;;;;;;;;;6185143;23;20040;-84
2023/12/06 00:56:01;;;;;;;0.68;0.60;;;;;;;;;;6185325;23;19997;-85
2023/12/06 00:58:47;;;;;;;2.13;0.80;;;;;;;;;;6205771;23;20004;-85
2023/12/06 01:01:32;;;;;;;1.02;0.70;;;;;;;;;;6206500;23;20020;-85
2023/12/06 01:04:17;;;;;;;1.58;0.77;;;;;;;;;;6165508;23;19996;-85
2023/12/06 01:07:03;;;;;;;0.98;0.60;;;;;;;;;;6185534;23;20015;-84
2023/12/06 01:09:48;;;;;;;0.70;0.60;;;;;;;;;;6163697;23;20118;-84
2023/12/06 01:12:35;;;;;;;0.65;0.60;;;;;;;;;;6186054;23;20591;-84
2023/12/06 01:15:20;;;;;;;0.60;0.60;;;;;;;;;;6185649;23;20162;-86
2023/12/06 01:18:06;;;;;;;1.00;0.60;;;;;;;;;;6185866;23;20011;-85
2023/12/06 01:20:51;;;;;;;0.63;0.63;;;;;;;;;;6175601;23;20017;-84
2023/12/06 01:23:36;;;;;;;0.63;0.50;;;;;;;;;;6177088;23;20330;-84
2023/12/06 01:26:21;;;;;;;0.63;0.60;;;;;;;;;;6176191;23;20406;-84
2023/12/06 01:29:08;;;;;;;0.65;0.60;;;;;;;;;;6176410;23;20044;-84
2023/12/06 01:31:53;;;;;;;0.60;0.60;;;;;;;;;;6176565;23;20072;-85
2023/12/06 01:34:38;;;;;;;1.85;0.80;;;;;;;;;;6176623;23;20096;-84
2023/12/06 01:37:24;;;;;;;1.95;0.93;;;;;;;;;;6176271;23;19997;-84
2023/12/06 01:40:09;;;;;;;2.08;0.80;;;;;;;;;;6175390;23;20015;-85
2023/12/06 01:42:54;;;;;;;2.50;0.93;;;;;;;;;;6176763;23;20442;-86
2023/12/06 01:45:40;;;;;;;5.53;1.23;;;;;;;;;;6176863;23;19998;-85
2023/12/06 01:48:25;;;;;;;1.83;0.80;;;;;;;;;;6176047;23;20023;-85
2023/12/06 01:51:12;;;;;;;1.42;0.90;;;;;;;;;;6158457;23;20005;-85
2023/12/06 01:53:58;;;;;;;0.68;0.68;;;;;;;;;;6176813;23;20454;-85
2023/12/06 01:56:45;;;;;;;0.77;0.70;;;;;;;;;;6175399;23;20334;-85
2023/12/06 01:59:30;;;;;;;1.02;0.70;;;;;;;;;;6176455;23;20375;-85
2023/12/06 02:02:15;;;;;;;0.60;0.60;;;;;;;;;;6181934;23;19997;-85
2023/12/06 02:05:01;;;;;;;2.30;0.77;;;;;;;;;;6176734;23;20434;-85
2023/12/06 02:07:48;;;;;;;2.35;0.75;;;;;;;;;;6176306;23;19997;-86
2023/12/06 02:10:33;;;;;;;0.50;0.50;;;;;;;;;;6175829;23;20001;-85
2023/12/06 02:13:18;;;;;;;0.65;0.60;;;;;;;;;;6175272;23;20404;-86
2023/12/06 02:16:04;;;;;;;1.48;0.68;;;;;;;;;;6176110;23;20001;-86
2023/12/06 02:18:50;;;;;;;0.80;0.68;;;;;;;;;;6176350;23;20008;-85
2023/12/06 02:21:35;;;;;;;1.08;0.82;;;;;;;;;;6186440;23;20016;-86
2023/12/06 02:24:22;;;;;;;2.63;0.75;;;;;;;;;;6185572;23;20035;-86
2023/12/06 02:27:07;;;;;;;1.77;1.10;;;;;;;;;;6186311;23;19997;-86
2023/12/06 02:29:52;;;;;;;2.00;1.90;;;;;;;;;;6165073;23;20099;-86
2023/12/06 02:32:38;;;;;;;1.23;1.10;;;;;;;;;;6185769;23;20409;-86
2023/12/06 02:35:30;;;;;;;0.60;0.60;;;;;;;;;;6186812;23;20413;-88
2023/12/06 02:38:16;;;;;;;0.75;0.60;;;;;;;;;;6186857;23;20028;-86
2023/12/06 02:41:02;;;;;;;1.95;0.52;;;;;;;;;;6165732;23;20000;-85
2023/12/06 02:43:49;;;;;;;0.77;0.50;;;;;;;;;;6166270;23;20036;-85
2023/12/06 02:46:36;;;;;;;0.50;0.50;;;;;;;;;;6187117;23;20000;-85
2023/12/06 02:49:21;;;;;;;1.65;0.55;;;;;;;;;;6187142;23;20321;-86
2023/12/06 02:52:10;;;;;;;0.77;0.60;;;;;;;;;;6186801;23;20394;-86
2023/12/06 02:54:55;;;;;;;0.50;0.50;;;;;;;;;;6208048;23;20024;-85
2023/12/06 02:57:40;;;;;;;0.50;0.50;;;;;;;;;;6207392;23;19997;-85
2023/12/06 03:00:26;;;;;;;1.25;0.50;;;;;;;;;;6165715;23;20349;-84
2023/12/06 03:03:11;;;;;;;0.40;0.40;;;;;;;;;;6187400;23;20357;-84
2023/12/06 03:05:56;;;;;;;1.08;0.98;;;;;;;;;;6189391;23;20001;-84
2023/12/06 03:08:41;;;;;;;0.50;0.50;;;;;;;;;;6168688;23;20451;-85
2023/12/06 03:11:27;;;;;;;0.63;0.50;;;;;;;;;;6189482;23;20039;-86
2023/12/06 03:14:15;;;;;;;0.45;0.45;;;;;;;;;;6168770;23;20333;-86
2023/12/06 03:17:03;;;;;;;0.40;0.40;;;;;;;;;;6188649;23;19997;-86
2023/12/06 03:19:48;;;;;;;0.60;0.60;;;;;;;;;;6169284;23;20012;-85
2023/12/06 03:22:34;;;;;;;2.15;0.50;;;;;;;;;;6169064;23;20651;-86
2023/12/06 03:25:19;;;;;;;1.23;0.73;;;;;;;;;;6189539;23;19996;-86
2023/12/06 03:28:04;;;;;;;0.85;0.45;;;;;;;;;;6189493;23;19997;-86
2023/12/06 03:30:50;;;;;;;0.65;0.60;;;;;;;;;;6210440;23;20041;-86
2023/12/06 03:33:35;;;;;;;1.75;0.68;;;;;;;;;;6189642;23;19997;-86
2023/12/06 03:36:20;;;;;;;2.03;0.70;;;;;;;;;;6188684;23;20071;-86
2023/12/06 03:39:06;;;;;;;1.20;0.50;;;;;;;;;;6211031;23;20080;-87
2023/12/06 03:41:51;;;;;;;0.80;0.50;;;;;;;;;;6190881;23;19996;-86
2023/12/06 03:44:37;;;;;;;0.85;0.60;;;;;;;;;;6190938;23;20042;-86
2023/12/06 03:47:23;;;;;;;1.13;0.57;;;;;;;;;;6189463;23;19999;-86
2023/12/06 03:50:08;;;;;;;0.40;0.40;;;;;;;;;;6167179;23;20346;-87
2023/12/06 03:52:54;;;;;;;0.60;0.60;;;;;;;;;;6188719;23;20029;-86
2023/12/06 03:55:39;;;;;;;1.45;0.70;;;;;;;;;;6168849;23;20004;-86
2023/12/06 03:58:24;;;;;;;0.57;0.43;;;;;;;;;;6188385;23;19992;-87
2023/12/06 04:01:10;;;;;;;0.60;0.60;;;;;;;;;;6189196;23;20078;-87
2023/12/06 04:03:55;;;;;;;0.80;0.60;;;;;;;;;;6165641;23;20028;-87
2023/12/06 04:06:40;;;;;;;2.05;0.70;;;;;;;;;;6208206;23;20034;-86
2023/12/06 04:09:26;;;;;;;0.95;0.47;;;;;;;;;;6182742;23;20007;-86
2023/12/06 04:12:11;;;;;;;0.77;0.50;;;;;;;;;;6207182;23;20005;-87
2023/12/06 04:14:56;;;;;;;0.40;0.40;;;;;;;;;;6206164;23;20505;-86
2023/12/06 04:17:42;;;;;;;0.60;0.57;;;;;;;;;;6186360;23;20142;-86
2023/12/06 04:20:27;;;;;;;0.47;0.47;;;;;;;;;;6185545;23;20016;-86
2023/12/06 04:23:13;;;;;;;0.73;0.60;;;;;;;;;;6185905;23;20004;-85
2023/12/06 04:25:58;;;;;;;0.50;0.50;;;;;;;;;;6205667;23;20094;-85
2023/12/06 04:28:43;;;;;;;0.57;0.50;;;;;;;;;;6186109;23;20024;-85
2023/12/06 04:31:28;;;;;;;0.40;0.40;;;;;;;;;;6206731;23;20337;-85
2023/12/06 04:34:14;;;;;;;0.40;0.40;;;;;;;;;;6185593;23;20005;-85
2023/12/06 04:36:59;;;;;;;0.40;0.40;;;;;;;;;;6185830;23;20004;-85
2023/12/06 04:39:44;;;;;;;0.77;0.40;;;;;;;;;;6185982;23;20238;-85
2023/12/06 04:42:30;;;;;;;0.60;0.50;;;;;;;;;;6184746;23;20023;-85
2023/12/06 04:45:15;;;;;;;0.52;0.52;;;;;;;;;;6165601;23;20031;-86
2023/12/06 04:48:00;;;;;;;1.42;0.70;;;;;;;;;;6206122;23;20079;-85
2023/12/06 04:50:46;;;;;;;0.40;0.40;;;;;;;;;;6185366;23;20653;-85
2023/12/06 04:53:31;;;;;;;0.65;0.50;;;;;;;;;;6185404;23;20492;-86
2023/12/06 04:56:19;;;;;;;2.33;0.90;;;;;;;;;;6186166;23;19997;-86
2023/12/06 04:59:05;;;;;;;2.50;1.17;;;;;;;;;;6206804;23;20079;-85
2023/12/06 05:01:50;;;;;;;2.35;1.02;;;;;;;;;;6184377;23;20054;-85
2023/12/06 05:04:35;;;;;;;2.42;1.00;;;;;;;;;;6185604;23;20421;-85
2023/12/06 05:07:21;;;;;;;4.28;1.58;;;;;;;;;;6185294;23;19996;-85
2023/12/06 05:10:09;;;;;;;1.75;1.00;;;;;;;;;;6185186;23;20091;-85
2023/12/06 05:12:54;;;;;;;1.23;0.75;;;;;;;;;;6206077;23;19996;-85
2023/12/06 05:15:39;;;;;;;4.43;1.05;;;;;;;;;;6185360;23;20004;-85
2023/12/06 05:18:25;;;;;;;2.20;0.60;;;;;;;;;;6185596;23;20428;-86
2023/12/06 05:21:10;;;;;;;0.50;0.50;;;;;;;;;;6185130;23;20120;-86
2023/12/06 05:23:55;;;;;;;0.50;0.50;;;;;;;;;;6184616;23;20028;-85
2023/12/06 05:26:40;;;;;;;0.60;0.50;;;;;;;;;;6184831;23;20003;-85
2023/12/06 05:29:26;;;;;;;1.75;0.50;;;;;;;;;;6206337;23;20429;-86
2023/12/06 05:32:11;;;;;;;2.05;0.60;;;;;;;;;;6187256;23;20050;-85
2023/12/06 05:34:56;;;;;;;2.22;0.55;;;;;;;;;;6207255;23;19993;-85
2023/12/06 05:37:42;;;;;;;1.70;0.63;;;;;;;;;;6186740;23;19993;-85
2023/12/06 05:40:31;;;;;;;0.73;0.60;;;;;;;;;;6166191;23;20004;-85
2023/12/06 05:43:17;;;;;;;1.08;0.60;;;;;;;;;;6187580;23;20438;-86
2023/12/06 05:46:02;;;;;;;1.35;0.60;;;;;;;;;;6185774;23;20460;-84
2023/12/06 05:48:47;;;;;;;1.40;0.70;;;;;;;;;;6186862;23;20425;-84
2023/12/06 05:51:33;;;;;;;0.70;0.70;;;;;;;;;;6185633;23;20051;-84
2023/12/06 05:54:18;;;;;;;1.05;0.63;;;;;;;;;;6206976;23;20008;-84
2023/12/06 05:57:06;;;;;;;1.85;0.70;;;;;;;;;;6186223;23;20333;-84
2023/12/06 05:59:57;;;;;;;0.95;0.65;;;;;;;;;;6185646;23;20001;-84
2023/12/06 06:02:45;;;;;;;0.80;0.63;;;;;;;;;;6187365;23;19993;-86
2023/12/06 06:05:30;;;;;;;0.98;0.60;;;;;;;;;;6186780;23;19997;-87
2023/12/06 06:08:15;;;;;;;1.30;0.70;;;;;;;;;;6187748;23;20079;-84
2023/12/06 06:11:01;;;;;;;1.17;0.85;;;;;;;;;;6188337;23;19997;-86
2023/12/06 06:13:46;;;;;;;5.38;1.40;;;;;;;;;;6188023;23;19993;-84
2023/12/06 06:16:32;;;;;;;3.05;1.55;;;;;;;;;;6190564;23;20001;-88
2023/12/06 06:19:17;;;;;;;9.10;2.75;;;;;;;;;;6206425;23;20009;-84
2023/12/06 06:22:03;;;;;;;3.15;1.67;;;;;;;;;;6204270;23;20058;-84
2023/12/06 06:24:48;;;;;;;1.88;1.00;;;;;;;;;;6230849;23;20299;-84
2023/12/06 06:27:33;;;;;;;3.13;0.85;;;;;;;;;;6211383;23;19997;-84
2023/12/06 06:30:18;;;;;;;0.90;0.85;;;;;;;;;;6209464;23;19997;-84
2023/12/06 06:33:04;;;;;;;2.78;0.90;;;;;;;;;;6187625;23;19996;-83
2023/12/06 06:35:50;;;;;;;2.83;0.80;;;;;;;;;;6188095;23;20005;-83
2023/12/06 06:38:37;;;;;;;2.78;0.93;;;;;;;;;;6187996;23;20000;-83
2023/12/06 06:41:24;;;;;;;1.23;0.80;;;;;;;;;;6187047;23;20054;-83
2023/12/06 06:44:10;;;;;;;1.77;1.10;;;;;;;;;;6165762;23;19997;-82
2023/12/06 06:46:55;;;;;;;1.80;0.90;;;;;;;;;;6207852;23;20003;-83
2023/12/06 06:49:40;;;;;;;1.10;0.68;;;;;;;;;;6187373;23;20039;-84
2023/12/06 06:52:25;;;;;;;1.38;0.98;;;;;;;;;;6187762;23;20004;-84
2023/12/06 06:55:11;;;;;;;0.65;0.63;;;;;;;;;;6207094;23;20012;-84
2023/12/06 06:58:03;;;;;;;1.45;1.00;;;;;;;;;;6187469;23;20004;-83
2023/12/06 07:00:48;;;;;;;1.83;0.68;;;;;;;;;;6209069;23;20072;-85
2023/12/06 07:03:33;;;;;;;3.10;1.10;;;;;;;;;;6191136;23;20004;-85
2023/12/06 07:06:20;;;;;;;1.77;1.08;;;;;;;;;;6186966;23;20005;-85
2023/12/06 07:09:05;;;;;;;1.10;0.93;;;;;;;;;;6187719;23;20083;-84
2023/12/06 07:11:51;;;;;;;2.03;0.70;;;;;;;;;;6207322;23;20065;-82
2023/12/06 07:14:36;;;;;;;3.90;0.80;;;;;;;;;;6185903;23;20001;-85
2023/12/06 07:17:21;;;;;;;1.40;1.00;;;;;;;;;;6186890;23;19997;-84
2023/12/06 07:20:07;;;;;;;0.82;0.60;;;;;;;;;;6177488;23;20020;-86
2023/12/06 07:22:54;;;;;;;1.20;0.90;;;;;;;;;;6177658;23;20012;-84
2023/12/06 07:25:40;;;;;;;3.80;3.40;;;;;;;;;;6177700;23;20003;-84
2023/12/06 07:28:25;;;;;;;1.45;0.80;;;;;;;;;;6198971;23;20001;-85
2023/12/06 07:31:10;;;;;;;1.08;0.68;;;;;;;;;;6198780;23;20330;-84
2023/12/06 07:33:55;;;;;;;1.73;1.15;;;;;;;;;;6178061;23;20614;-84
2023/12/06 07:36:40;;;;;;;5.03;2.10;;;;;;;;;;6176760;23;20425;-83
2023/12/06 07:39:26;;;;;;;1.63;0.90;;;;;;;;;;6177294;23;20084;-84
2023/12/06 07:42:11;;;;;;;1.67;0.90;;;;;;;;;;6197231;23;20001;-84
2023/12/06 07:44:56;;;;;;;2.40;1.00;;;;;;;;;;6197679;23;20008;-85
2023/12/06 07:47:41;;;;;;;1.65;0.90;;;;;;;;;;6177466;23;20016;-85
2023/12/06 07:50:26;;;;;;;3.75;0.95;;;;;;;;;;6177875;23;20005;-85
2023/12/06 07:53:12;;;;;;;1.92;1.20;;;;;;;;;;6198498;23;20012;-85
2023/12/06 07:55:58;;;;;;;0.95;0.60;;;;;;;;;;6178040;23;20032;-87
2023/12/06 07:58:43;;;;;;;2.05;1.15;;;;;;;;;;6180138;23;20076;-88
2023/12/06 08:01:31;;;;;;;1.85;0.90;;;;;;;;;;6179680;23;20033;-89
2023/12/06 08:04:18;;;;;;;1.15;0.85;;;;;;;;;;6157495;23;20000;-85
2023/12/06 08:07:03;;;;;;;2.47;1.48;;;;;;;;;;6176709;23;20008;-87
2023/12/06 08:09:49;;;;;;;3.63;1.17;;;;;;;;;;6198439;23;20535;-87
2023/12/06 08:12:35;;;;;;;1.13;1.00;;;;;;;;;;6176751;23;19993;-86
2023/12/06 08:15:21;;;;;;;1.25;0.95;;;;;;;;;;6198620;23;20049;-87
2023/12/06 08:18:07;;;;;;;1.95;0.90;;;;;;;;;;6177768;23;19997;-87
2023/12/06 08:20:53;;;;;;;1.65;0.93;;;;;;;;;;6177108;23;20024;-87
2023/12/06 08:23:40;;;;;;;2.63;1.40;;;;;;;;;;6177702;23;20008;-86
2023/12/06 08:26:25;;;;;;;2.28;1.15;;;;;;;;;;6156084;23;20011;-86
2023/12/06 08:29:11;;;;;;;1.75;1.25;;;;;;;;;;6177341;23;20005;-86
2023/12/06 08:31:56;;;;;;;3.67;1.10;;;;;;;;;;6176721;23;20000;-87
2023/12/06 08:34:41;;;;;;;3.20;1.40;;;;;;;;;;6176933;23;20020;-88
2023/12/06 08:37:26;;;;;;;2.40;1.50;;;;;;;;;;6157027;23;20001;-88
2023/12/06 08:40:12;;;;;;;2.42;1.33;;;;;;;;;;6198738;23;20092;-86
2023/12/06 08:42:57;;;;;;;1.85;1.50;;;;;;;;;;6178800;23;20084;-86
2023/12/06 08:45:43;;;;;;;3.33;2.08;;;;;;;;;;6178413;23;20001;-88
2023/12/06 08:48:28;;;;;;;4.13;1.95;;;;;;;;;;6158520;23;20063;-87
2023/12/06 08:51:13;;;;;;;3.30;2.30;;;;;;;;;;6158056;23;20525;-89
2023/12/06 08:53:58;;;;;;;6.15;2.78;;;;;;;;;;6178331;23;20012;-87
2023/12/06 08:56:44;;;;;;;6.82;3.35;;;;;;;;;;6175973;23;20087;-89
2023/12/06 08:59:29;;;;;;;8.73;4.03;;;;;;;;;;6179077;23;20342;-89
2023/12/06 09:02:16;;;;;;;5.75;3.80;;;;;;;;;;6179645;23;20103;-83
2023/12/06 09:05:01;;;;;;;9.02;4.43;;;;;;;;;;6174923;23;20055;-81
2023/12/06 09:07:46;;;;;;;7.80;4.53;;;;;;;;;;6174415;23;20093;-80
2023/12/06 09:10:32;;;;;;;6.57;4.40;;;;;;;;;;6174363;23;20016;-79
2023/12/06 09:13:17;;;;;;;7.43;4.57;;;;;;;;;;6174185;23;20184;-80
2023/12/06 09:16:03;;;;;;;8.75;4.80;;;;;;;;;;6173130;23;20023;-79
2023/12/06 09:18:48;;;;;;;9.07;5.72;;;;;;;;;;6175633;23;20047;-79
2023/12/06 09:21:59;;;;;;;8.40;5.18;;;;;;;;;;6175227;23;20329;-79
2023/12/06 09:24:45;;;;;;;9.00;5.50;;;;;;;;;;6195413;23;20001;-79
2023/12/06 09:27:33;;;;;;;8.48;5.32;;;;;;;;;;6174846;23;20004;-77
2023/12/06 09:30:21;;;;;;;7.32;4.72;;;;;;;;;;6174270;23;20476;-79
2023/12/06 09:33:07;;;;;;;8.50;5.20;;;;;;;;;;6174062;23;20091;-79
2023/12/06 09:35:52;;;;;;;8.40;5.68;;;;;;;;;;6173828;23;20005;-78
2023/12/06 09:38:38;;;;;;;7.70;5.20;;;;;;;;;;6175458;23;20035;-79
2023/12/06 09:41:33;;;;;;;9.40;5.93;;;;;;;;;;6174353;23;20430;-79
2023/12/06 09:44:18;;;;;;;9.35;5.07;;;;;;;;;;6197394;23;20552;-79
2023/12/06 09:47:04;;;;;;;9.07;6.03;;;;;;;;;;6155180;23;20505;-78
2023/12/06 09:49:49;;;;;;;9.50;5.72;;;;;;;;;;6172008;23;20009;-80
2023/12/06 09:52:34;;;;;;;10.32;6.35;;;;;;;;;;6176629;23;20456;-79
2023/12/06 09:55:23;;;;;;;9.73;5.97;;;;;;;;;;6177325;23;20009;-79
2023/12/06 09:58:09;;;;;;;9.93;6.13;;;;;;;;;;6175772;23;19997;-77
2023/12/06 10:00:54;;;;;;;9.80;6.45;;;;;;;;;;6176882;23;20001;-79
2023/12/06 10:03:40;;;;;;;9.93;6.03;;;;;;;;;;6176597;23;20315;-79
2023/12/06 10:06:26;;;;;;;9.73;6.05;;;;;;;;;;6176205;23;20004;-80
2023/12/06 10:09:11;;;;;;;12.02;7.47;;;;;;;;;;6176176;23;20007;-80
2023/12/06 10:12:09;;;;;;;8.60;6.03;;;;;;;;;;6197542;23;20005;-79
2023/12/06 10:14:58;;;;;;;9.20;5.70;;;;;;;;;;6175954;23;20497;-79
2023/12/06 10:17:44;;;;;;;10.07;5.85;;;;;;;;;;6174712;23;20001;-79
2023/12/06 10:20:29;;;;;;;11.85;7.15;;;;;;;;;;6175757;23;20354;-79
2023/12/06 10:23:14;;;;;;;9.38;6.10;;;;;;;;;;6175920;23;20067;-79
2023/12/06 10:26:00;;;;;;;10.27;6.20;;;;;;;;;;6175545;23;19997;-79
2023/12/06 10:28:46;;;;;;;9.80;6.13;;;;;;;;;;6177304;23;20035;-79
2023/12/06 10:31:42;;;;;;;9.18;5.80;;;;;;;;;;6196832;23;20009;-79
2023/12/06 10:34:28;;;;;;;8.60;5.20;;;;;;;;;;6196675;23;20032;-79
2023/12/06 10:37:18;;;;;;;8.18;5.60;;;;;;;;;;6176029;23;20032;-79
2023/12/06 10:40:13;;;;;;;8.60;5.35;;;;;;;;;;6176212;23;20005;-78
2023/12/06 10:43:04;;;;;;;8.52;5.28;;;;;;;;;;6175763;23;20015;-79
2023/12/06 10:45:51;;;;;;;8.98;5.57;;;;;;;;;;6175249;23;20015;-79
2023/12/06 10:48:37;;;;;;;9.18;5.45;;;;;;;;;;6176071;23;20338;-79
2023/12/06 10:51:23;;;;;;;7.15;4.63;;;;;;;;;;6171746;23;20036;-79
2023/12/06 10:54:09;;;;;;;7.28;4.55;;;;;;;;;;6175275;23;20087;-78
2023/12/06 10:56:56;;;;;;;8.80;5.70;;;;;;;;;;6175644;23;20072;-78
2023/12/06 10:59:41;;;;;;;11.23;6.10;;;;;;;;;;6196409;23;20005;-79
2023/12/06 11:02:27;;;;;;;8.63;4.95;;;;;;;;;;6197538;23;20009;-79
2023/12/06 11:05:12;;;;;;;9.95;5.00;;;;;;;;;;6176235;23;20032;-79
2023/12/06 11:07:58;;;;;;;8.13;4.70;;;;;;;;;;6176018;23;20009;-78
2023/12/06 11:10:55;;;;;;;7.88;4.78;;;;;;;;;;6175736;23;20032;-79
2023/12/06 11:13:47;;;;;;;7.25;4.90;;;;;;;;;;6175177;23;19997;-79
2023/12/06 11:16:35;;;;;;;7.38;4.68;;;;;;;;;;6175487;23;20339;-79
2023/12/06 11:19:21;;;;;;;5.60;4.03;;;;;;;;;;6180247;23;20013;-78
2023/12/06 11:22:06;;;;;;;7.43;4.80;;;;;;;;;;6184523;23;20003;-78
2023/12/06 11:24:51;;;;;;;8.48;4.97;;;;;;;;;;6185302;23;19997;-78
2023/12/06 11:27:41;;;;;;;8.48;5.28;;;;;;;;;;6164006;23;19996;-79
2023/12/06 11:30:26;;;;;;;7.13;4.22;;;;;;;;;;6185193;23;20031;-79
2023/12/06 11:33:12;;;;;;;7.15;4.38;;;;;;;;;;6184358;23;19993;-79
2023/12/06 11:35:57;;;;;;;7.15;4.93;;;;;;;;;;6185167;23;20484;-78
2023/12/06 11:38:45;;;;;;;8.70;4.57;;;;;;;;;;6205400;23;20139;-78
2023/12/06 11:41:32;;;;;;;7.90;4.90;;;;;;;;;;6184740;23;20024;-79
2023/12/06 11:44:18;;;;;;;9.43;4.85;;;;;;;;;;6184312;23;20004;-78
2023/12/06 11:47:05;;;;;;;9.27;5.65;;;;;;;;;;6183383;23;20012;-77
2023/12/06 11:49:51;;;;;;;7.03;4.57;;;;;;;;;;6184544;23;20032;-78
2023/12/06 11:52:44;;;;;;;8.55;5.30;;;;;;;;;;6184338;23;20020;-77
2023/12/06 11:55:29;;;;;;;8.70;5.45;;;;;;;;;;6184288;23;20005;-78
2023/12/06 11:58:15;;;;;;;7.82;4.90;;;;;;;;;;6205506;23;20000;-78
2023/12/06 12:01:01;;;;;;;8.35;5.00;;;;;;;;;;6182204;23;20005;-78
2023/12/06 12:03:48;;;;;;;8.23;5.10;;;;;;;;;;6205482;23;20095;-78
2023/12/06 12:06:33;;;;;;;10.27;5.22;;;;;;;;;;6185483;23;20008;-78
2023/12/06 12:09:20;;;;;;;7.63;5.07;;;;;;;;;;6163320;23;20051;-78
2023/12/06 12:12:05;;;;;;;7.40;5.25;;;;;;;;;;6184318;23;20075;-78
2023/12/06 12:14:51;;;;;;;8.60;4.65;;;;;;;;;;6184247;23;20001;-78
2023/12/06 12:17:36;;;;;;;8.13;5.18;;;;;;;;;;6184215;23;20075;-80
2023/12/06 12:20:21;;;;;;;7.68;4.78;;;;;;;;;;6154243;23;20017;-80
2023/12/06 12:23:07;;;;;;;7.20;5.30;;;;;;;;;;6175105;23;20004;-80
2023/12/06 12:25:52;;;;;;;8.15;5.28;;;;;;;;;;6176191;23;20080;-79
2023/12/06 12:28:39;;;;;;;11.93;5.15;;;;;;;;;;6154459;23;20039;-79
2023/12/06 12:31:26;;;;;;;7.10;4.55;;;;;;;;;;6174545;23;20442;-80
2023/12/06 12:34:12;;;;;;;8.50;5.05;;;;;;;;;;6196472;23;20044;-79
2023/12/06 12:36:59;;;;;;;8.93;4.90;;;;;;;;;;6175423;23;20062;-79
2023/12/06 12:39:45;;;;;;;9.00;5.05;;;;;;;;;;6196066;23;20028;-79
2023/12/06 12:42:30;;;;;;;7.63;4.90;;;;;;;;;;6195619;23;20036;-79
2023/12/06 12:45:17;;;;;;;8.25;4.95;;;;;;;;;;6175352;23;20470;-79
2023/12/06 12:48:03;;;;;;;8.43;4.97;;;;;;;;;;6176538;23;20009;-78
2023/12/06 12:50:48;;;;;;;7.38;4.88;;;;;;;;;;6174862;23;20001;-79
2023/12/06 12:53:35;;;;;;;10.35;4.80;;;;;;;;;;6174894;23;19997;-79
2023/12/06 12:56:21;;;;;;;12.07;5.03;;;;;;;;;;6174921;23;20330;-79
2023/12/06 12:59:06;;;;;;;8.98;5.40;;;;;;;;;;6175211;23;20055;-77
2023/12/06 13:01:51;;;;;;;7.75;4.63;;;;;;;;;;6174833;23;20032;-79
2023/12/06 13:04:37;;;;;;;8.57;5.07;;;;;;;;;;6175454;23;19993;-79
2023/12/06 13:07:22;;;;;;;8.63;4.75;;;;;;;;;;6174581;23;20366;-79
2023/12/06 13:10:10;;;;;;;7.88;4.43;;;;;;;;;;6174407;23;20218;-79
2023/12/06 13:12:56;;;;;;;7.30;4.75;;;;;;;;;;6174630;23;20074;-79
2023/12/06 13:15:41;;;;;;;6.40;3.95;;;;;;;;;;6174670;23;20075;-79
2023/12/06 13:18:26;;;;;;;10.48;4.35;;;;;;;;;;6174548;23;20080;-78
2023/12/06 13:21:12;;;;;;;8.80;5.00;;;;;;;;;;6204877;23;20024;-79
2023/12/06 13:23:57;;;;;;;6.90;4.53;;;;;;;;;;6184784;23;20319;-79
2023/12/06 13:26:42;;;;;;;8.05;4.20;;;;;;;;;;6185532;23;20634;-79
2023/12/06 13:29:28;;;;;;;7.47;4.03;;;;;;;;;;6184010;23;20004;-79
2023/12/06 13:32:14;;;;;;;7.22;5.00;;;;;;;;;;6183255;23;19996;-77
2023/12/06 13:34:59;;;;;;;8.40;4.75;;;;;;;;;;6184985;23;20009;-80
2023/12/06 13:37:44;;;;;;;12.20;4.88;;;;;;;;;;6183719;23;19993;-79
2023/12/06 13:40:29;;;;;;;9.25;5.03;;;;;;;;;;6183977;23;20023;-79
2023/12/06 13:43:20;;;;;;;8.88;5.50;;;;;;;;;;6183403;23;20517;-79
2023/12/06 13:46:05;;;;;;;8.77;5.13;;;;;;;;;;6178980;23;20083;-78
2023/12/06 13:48:51;;;;;;;9.52;4.80;;;;;;;;;;6184213;23;20020;-77
2023/12/06 13:51:37;;;;;;;14.80;6.20;;;;;;;;;;6183872;23;20012;-76
2023/12/06 13:54:22;;;;;;;7.88;4.55;;;;;;;;;;6183552;23;20017;-77
2023/12/06 13:57:07;;;;;;;10.00;4.95;;;;;;;;;;6184308;23;20003;-77
2023/12/06 13:59:52;;;;;;;7.57;4.32;;;;;;;;;;6204484;23;20018;-77
2023/12/06 14:02:38;;;;;;;8.00;4.90;;;;;;;;;;6183286;23;20028;-77
2023/12/06 14:05:23;;;;;;;8.30;5.00;;;;;;;;;;6183876;23;20095;-78
2023/12/06 14:08:11;;;;;;;6.38;4.13;;;;;;;;;;6183435;23;20011;-78
2023/12/06 14:10:56;;;;;;;8.43;4.85;;;;;;;;;;6181127;23;20434;-78
2023/12/06 14:13:41;;;;;;;8.10;4.70;;;;;;;;;;6202296;23;20005;-77
2023/12/06 14:16:26;;;;;;;7.32;3.97;;;;;;;;;;6204572;23;20000;-78
2023/12/06 14:19:12;;;;;;;8.23;4.85;;;;;;;;;;6183076;23;20004;-78
2023/12/06 14:21:57;;;;;;;8.15;5.43;;;;;;;;;;6163450;23;20009;-76
2023/12/06 14:24:43;;;;;;;8.00;4.45;;;;;;;;;;6205751;23;19996;-76
2023/12/06 14:27:28;;;;;;;10.15;4.68;;;;;;;;;;6185113;23;20004;-76
2023/12/06 14:30:14;;;;;;;7.35;4.25;;;;;;;;;;6206029;23;20417;-75
2023/12/06 14:33:00;;;;;;;8.98;4.15;;;;;;;;;;6184982;23;19993;-78
2023/12/06 14:35:45;;;;;;;7.72;4.78;;;;;;;;;;6185830;23;20000;-75
2023/12/06 14:38:29;;;;;;;10.60;5.22;;;;;;;;;;6205295;23;20046;-78
2023/12/06 14:41:20;;;;;;;7.47;4.18;;;;;;;;;;6164974;23;20012;-77
2023/12/06 14:44:06;;;;;;;7.43;4.50;;;;;;;;;;6184187;23;19996;-79
2023/12/06 14:46:51;;;;;;;8.15;4.63;;;;;;;;;;6184674;23;20001;-77
2023/12/06 14:49:37;;;;;;;9.05;5.00;;;;;;;;;;6185124;23;20058;-79
2023/12/06 14:52:22;;;;;;;7.95;4.68;;;;;;;;;;6184948;23;20004;-79
2023/12/06 14:55:08;;;;;;;8.02;4.80;;;;;;;;;;6184868;23;20119;-78
2023/12/06 14:57:53;;;;;;;12.38;5.53;;;;;;;;;;6184967;23;20126;-78
2023/12/06 15:00:38;;;;;;;9.88;5.18;;;;;;;;;;6205457;23;20029;-78
2023/12/06 15:03:24;;;;;;;9.63;6.00;;;;;;;;;;6184795;23;20008;-78
2023/12/06 15:06:09;;;;;;;14.27;7.03;;;;;;;;;;6184237;23;20009;-78
2023/12/06 15:08:54;;;;;;;12.35;6.13;;;;;;;;;;6206431;23;20400;-78
2023/12/06 15:11:39;;;;;;;9.30;5.38;;;;;;;;;;6185118;23;20004;-77
2023/12/06 15:14:25;;;;;;;9.27;4.93;;;;;;;;;;6185097;23;20008;-79
2023/12/06 15:17:10;;;;;;;9.68;5.45;;;;;;;;;;6184431;23;20000;-78
2023/12/06 15:19:55;;;;;;;8.75;5.05;;;;;;;;;;6198526;23;20096;-82
2023/12/06 15:22:40;;;;;;;8.35;4.47;;;;;;;;;;6176427;23;20004;-77
2023/12/06 15:25:27;;;;;;;9.07;4.78;;;;;;;;;;6175625;23;19998;-77
2023/12/06 15:28:12;;;;;;;7.72;4.78;;;;;;;;;;6174636;23;19997;-76
2023/12/06 15:30:57;;;;;;;6.88;4.47;;;;;;;;;;6175476;23;20012;-76
2023/12/06 15:33:43;;;;;;;8.07;5.13;;;;;;;;;;6174980;23;20326;-76
2023/12/06 15:36:28;;;;;;;8.00;4.38;;;;;;;;;;6175417;23;20043;-79
2023/12/06 15:39:15;;;;;;;9.48;4.78;;;;;;;;;;6175280;23;20168;-77
2023/12/06 15:42:01;;;;;;;8.75;5.18;;;;;;;;;;6175748;23;20498;-76
2023/12/06 15:44:46;;;;;;;7.57;4.82;;;;;;;;;;6175693;23;20004;-78
2023/12/06 15:47:31;;;;;;;8.88;5.07;;;;;;;;;;6172002;23;20027;-77
2023/12/06 15:50:16;;;;;;;8.77;4.80;;;;;;;;;;6195985;23;20009;-77
2023/12/06 15:53:03;;;;;;;9.05;5.32;;;;;;;;;;6174454;23;19997;-76
2023/12/06 15:55:48;;;;;;;9.82;5.47;;;;;;;;;;6174603;23;20087;-78
2023/12/06 15:58:34;;;;;;;8.38;5.13;;;;;;;;;;6174855;23;20084;-76
2023/12/06 16:01:19;;;;;;;7.07;4.55;;;;;;;;;;6174453;23;20496;-77
2023/12/06 16:04:05;;;;;;;6.97;4.30;;;;;;;;;;6174651;23;20023;-78
2023/12/06 16:06:51;;;;;;;9.85;4.72;;;;;;;;;;6174934;23;20087;-77
2023/12/06 16:09:36;;;;;;;7.55;4.85;;;;;;;;;;6195582;23;20002;-79
2023/12/06 16:12:22;;;;;;;14.85;7.10;;;;;;;;;;6174539;23;20088;-78
2023/12/06 16:15:07;;;;;;;19.30;9.35;;;;;;;;;;6195419;23;20088;-78
2023/12/06 16:17:53;;;;;;;14.02;7.85;;;;;;;;;;6154068;23;20004;-78
2023/12/06 16:20:38;;;;;;;11.35;6.43;;;;;;;;;;6174189;23;20036;-78
2023/12/06 16:23:23;;;;;;;10.27;5.68;;;;;;;;;;6174134;23;20001;-78
2023/12/06 16:26:09;;;;;;;8.25;4.80;;;;;;;;;;6195054;23;20005;-78
2023/12/06 16:28:54;;;;;;;9.88;5.45;;;;;;;;;;6175007;23;20001;-77
2023/12/06 16:31:39;;;;;;;8.73;5.68;;;;;;;;;;6193332;23;20044;-78
2023/12/06 16:34:24;;;;;;;8.82;4.90;;;;;;;;;;6173354;23;20020;-77